aviador You're here:

EGUL Decoded Metar

LAKENHEATH in ENGLAND
Report Time2018-01-22 01:56:00
UTC Time2018-01-22 02:08:24
Flight Rules vfr VFR
Wind280° at 08 kt
W.Decomp.*RWY 24: 6.0 kt HW 5.2 kt RCW
W.Rank280° ranks 13
Current wind is below 280° avg. (8.8)
Visibility9999 m
Phenomena:N/A
Clouds:Overcast 044 Hf
Ceiling4,400 ft
Temp08°C (ISA -7)
Dew Point08°C (100% RH)
AAT4.7°C
QNH1005 hPa
Density Alt-384 ft
Elevation33 ft
Report Wrong Elevation
Raw Report
METAR EGUL 220156Z AUTO 28008KT 9999 OVC044 08/08 A2967 RMK AO2 SLP051
T00760076 $=

Extra information for EGUL:More info

Metar Taf Metar & Taf Last 4 Metars F.Rules Stats Wind Profile Meteogram Temp Stats Airport Information Weather charts Add Link Nearby VenuesMetar ALERT Operation Metar Decoded Social comments